Time;durP1;ratioP1;P1;durP2;ratioP2;P2;SDS_P1;SDS_P2;PMS_P1;PMS_P2;Temp;Humidity;BMP_temperature;BMP_pressure;BME280_temperature;BME280_humidity;BME280_pressure;Samples;Min_cycle;Max_cycle;Signal;HPM_P1;HPM_P2
2022/10/02 00:01:09;;;;;;;;;;;19.60;70.50;;;;;;4513044;31;20048;-70
2022/10/02 00:03:36;;;;;;;;;;;19.60;70.60;;;;;;4513122;31;20109;-70
2022/10/02 00:06:04;;;;;;;;;;;19.60;70.60;;;;;;4512760;31;20036;-70
2022/10/02 00:08:31;;;;;;;;;;;19.60;70.50;;;;;;4513483;31;20029;-70
2022/10/02 00:11:06;;;;;;;;;;;19.60;70.50;;;;;;4512541;31;20037;-70
2022/10/02 00:13:41;;;;;;;;;;;19.60;70.50;;;;;;4513393;31;20086;-70
2022/10/02 00:16:18;;;;;;;;;;;19.60;70.50;;;;;;4512857;31;20033;-70
2022/10/02 00:18:44;;;;;;;;;;;19.60;70.50;;;;;;4515626;31;20043;-70
2022/10/02 00:21:29;;;;;;;;;;;19.60;71.40;;;;;;4516420;31;20029;-70
2022/10/02 00:23:59;;;;;;;;;;;19.60;70.50;;;;;;4515665;31;20032;-70
2022/10/02 00:26:33;;;;;;;;;;;19.60;70.50;;;;;;4506223;31;20462;-70
2022/10/02 00:29:08;;;;;;;;;;;19.60;70.50;;;;;;4515841;31;20013;-70
2022/10/02 00:31:40;;;;;;;;;;;19.60;70.50;;;;;;4515605;31;20036;-69
2022/10/02 00:34:18;;;;;;;;;;;19.60;70.50;;;;;;4516265;31;20059;-70
2022/10/02 00:36:47;;;;;;;;;;;19.50;70.50;;;;;;4514428;31;20040;-70
2022/10/02 00:39:22;;;;;;;;;;;19.60;70.50;;;;;;4513237;31;20040;-70
2022/10/02 00:42:09;;;;;;;;;;;19.60;70.50;;;;;;4507746;31;20437;-70
2022/10/02 00:45:10;;;;;;;;;;;19.60;70.50;;;;;;4515020;31;20028;-69
2022/10/02 00:47:41;;;;;;;;;;;19.50;70.50;;;;;;4466581;32;20014;-70
2022/10/02 00:50:19;;;;;;;;;;;19.50;70.50;;;;;;4500606;31;20021;-70
2022/10/02 00:53:00;;;;;;;;;;;19.50;70.40;;;;;;4511971;31;20036;-70
2022/10/02 00:55:26;;;;;;;;;;;19.50;70.50;;;;;;4516192;31;20462;-70
2022/10/02 00:57:52;;;;;;;;;;;19.50;70.40;;;;;;4514980;31;20043;-70
2022/10/02 01:00:19;;;;;;;;;;;19.50;70.40;;;;;;4516848;31;20036;-70
2022/10/02 01:03:03;;;;;;;;;;;19.50;70.50;;;;;;4515275;31;20029;-70
2022/10/02 01:05:29;;;;;;;;;;;19.50;70.40;;;;;;4516733;31;20021;-69
2022/10/02 01:07:56;;;;;;;;;;;19.50;70.50;;;;;;4514074;31;20618;-70
2022/10/02 01:10:24;;;;;;;;;;;19.50;70.40;;;;;;4514100;31;20040;-69
2022/10/02 01:12:50;;;;;;;;;;;19.50;70.50;;;;;;4514800;31;20162;-70
2022/10/02 01:15:17;;;;;;;;;;;19.50;70.40;;;;;;4513586;31;20037;-70
2022/10/02 01:17:44;;;;;;;;;;;19.50;70.40;;;;;;4514334;31;20013;-70
2022/10/02 01:20:20;;;;;;;;;;;19.50;70.40;;;;;;4513235;31;20042;-72
2022/10/02 01:22:49;;;;;;;;;;;19.50;70.40;;;;;;4514482;31;20143;-70
2022/10/02 01:25:14;;;;;;;;;;;19.50;70.40;;;;;;4514461;31;20087;-70
2022/10/02 01:27:40;;;;;;;;;;;19.50;70.40;;;;;;4513841;31;20143;-70
2022/10/02 01:30:08;;;;;;;;;;;19.40;70.30;;;;;;4513950;31;20032;-70
2022/10/02 01:32:34;;;;;;;;;;;19.40;70.30;;;;;;4514575;31;20091;-70
2022/10/02 01:35:00;;;;;;;;;;;19.40;70.30;;;;;;4515419;31;20037;-70
2022/10/02 01:37:28;;;;;;;;;;;19.40;70.30;;;;;;4502600;31;20020;-70
2022/10/02 01:39:58;;;;;;;;;;;19.40;70.30;;;;;;4514059;31;20033;-70
2022/10/02 01:42:25;;;;;;;;;;;19.40;70.30;;;;;;4513393;31;20037;-70
2022/10/02 01:44:51;;;;;;;;;;;19.40;70.30;;;;;;4503198;31;20035;-70
2022/10/02 01:47:49;;;;;;;;;;;19.40;71.10;;;;;;4504055;31;20017;-70
2022/10/02 01:50:50;;;;;;;;;;;19.40;70.30;;;;;;4471891;31;20040;-70
2022/10/02 01:53:24;;;;;;;;;;;19.40;70.30;;;;;;4480870;32;20639;-70
2022/10/02 01:56:04;;;;;;;;;;;19.40;70.30;;;;;;4499692;31;20092;-70
2022/10/02 01:58:49;;;;;;;;;;;19.40;70.20;;;;;;4498682;31;20026;-70
2022/10/02 02:01:18;;;;;;;;;;;19.40;70.30;;;;;;4511113;31;20028;-70
2022/10/02 02:03:46;;;;;;;;;;;19.40;70.30;;;;;;4513614;31;20529;-70
2022/10/02 02:06:24;;;;;;;;;;;19.40;70.30;;;;;;4502854;31;20021;-70
2022/10/02 02:08:59;;;;;;;;;;;19.40;70.20;;;;;;4515185;31;20041;-70
2022/10/02 02:11:25;;;;;;;;;;;19.40;70.20;;;;;;4514091;31;20086;-70
2022/10/02 02:14:13;;;;;;;;;;;19.40;71.10;;;;;;4513574;31;20036;-70
2022/10/02 02:16:40;;;;;;;;;;;19.30;70.20;;;;;;4511484;31;20090;-70
2022/10/02 02:19:26;;;;;;;;;;;19.30;70.10;;;;;;4503828;31;20044;-70
2022/10/02 02:22:12;;;;;;;;;;;19.40;70.20;;;;;;4503425;31;20031;-70
2022/10/02 02:24:51;;;;;;;;;;;19.30;70.10;;;;;;4514227;31;20029;-70
2022/10/02 02:27:18;;;;;;;;;;;19.30;70.10;;;;;;4514152;31;20088;-70
2022/10/02 02:29:46;;;;;;;;;;;19.30;70.10;;;;;;4513534;31;20025;-70
2022/10/02 02:32:15;;;;;;;;;;;19.30;70.10;;;;;;4513484;31;20125;-70
2022/10/02 02:34:43;;;;;;;;;;;19.30;70.10;;;;;;4514854;31;20462;-70
2022/10/02 02:37:12;;;;;;;;;;;19.30;70.00;;;;;;4513931;31;20029;-70
2022/10/02 02:39:59;;;;;;;;;;;19.30;70.10;;;;;;4514263;31;20025;-70
2022/10/02 02:42:28;;;;;;;;;;;19.30;70.10;;;;;;4513936;31;20036;-70
2022/10/02 02:44:58;;;;;;;;;;;19.30;70.00;;;;;;4512413;31;20060;-69
2022/10/02 02:47:31;;;;;;;;;;;19.30;70.10;;;;;;4503468;31;20043;-70
2022/10/02 02:49:57;;;;;;;;;;;19.30;70.10;;;;;;4502711;31;20161;-70
2022/10/02 02:52:43;;;;;;;;;;;19.30;70.00;;;;;;4508224;31;20021;-70
2022/10/02 02:55:11;;;;;;;;;;;19.30;70.00;;;;;;4513631;31;20393;-70
2022/10/02 02:57:44;;;;;;;;;;;19.30;70.00;;;;;;4513249;31;20141;-69
2022/10/02 03:00:11;;;;;;;;;;;19.30;70.00;;;;;;4514191;31;20191;-69
2022/10/02 03:02:37;;;;;;;;;;;19.30;70.00;;;;;;4512905;31;20037;-70
2022/10/02 03:05:04;;;;;;;;;;;19.30;70.00;;;;;;4511539;31;20113;-70
2022/10/02 03:07:30;;;;;;;;;;;19.30;70.00;;;;;;4513074;31;20060;-70
2022/10/02 03:10:04;;;;;;;;;;;19.30;70.00;;;;;;4513076;31;20025;-70
2022/10/02 03:12:39;;;;;;;;;;;19.30;70.00;;;;;;4514038;31;20167;-70
2022/10/02 03:15:08;;;;;;;;;;;19.30;70.00;;;;;;4513060;31;20046;-70
2022/10/02 03:17:43;;;;;;;;;;;19.30;70.00;;;;;;4513733;31;20493;-70
2022/10/02 03:20:15;;;;;;;;;;;19.30;70.00;;;;;;4513323;31;20033;-70
2022/10/02 03:22:41;;;;;;;;;;;19.20;70.00;;;;;;4512783;31;20190;-71
2022/10/02 03:25:13;;;;;;;;;;;19.20;70.00;;;;;;4512950;31;20570;-71
2022/10/02 03:27:48;;;;;;;;;;;19.20;70.00;;;;;;4512403;31;20044;-71
2022/10/02 03:30:14;;;;;;;;;;;19.20;70.00;;;;;;4512557;31;20153;-71
2022/10/02 03:32:43;;;;;;;;;;;19.20;70.00;;;;;;4512576;31;20052;-70
2022/10/02 03:35:12;;;;;;;;;;;19.20;69.90;;;;;;4497887;31;20021;-71
2022/10/02 03:37:42;;;;;;;;;;;19.20;69.90;;;;;;4512875;31;20888;-70
2022/10/02 03:40:08;;;;;;;;;;;19.20;70.00;;;;;;4511850;31;20080;-69
2022/10/02 03:42:35;;;;;;;;;;;19.20;69.90;;;;;;4513259;31;20036;-71
2022/10/02 03:45:02;;;;;;;;;;;19.20;69.90;;;;;;4512193;31;20036;-70
2022/10/02 03:47:29;;;;;;;;;;;19.20;70.00;;;;;;4513174;31;20047;-70
2022/10/02 03:49:54;;;;;;;;;;;19.20;70.80;;;;;;4512614;31;20024;-70
2022/10/02 03:52:22;;;;;;;;;;;19.20;69.90;;;;;;4505727;31;20021;-71
2022/10/02 03:54:50;;;;;;;;;;;19.20;69.90;;;;;;4510581;31;20045;-70
2022/10/02 03:57:20;;;;;;;;;;;19.20;69.90;;;;;;4525295;31;20155;-70
2022/10/02 03:59:52;;;;;;;;;;;19.20;70.00;;;;;;4512223;31;20035;-70
2022/10/02 04:02:37;;;;;;;;;;;19.20;70.00;;;;;;4512519;31;20491;-70
2022/10/02 04:05:21;;;;;;;;;;;19.20;69.90;;;;;;4513354;31;20044;-71
2022/10/02 04:07:49;;;;;;;;;;;19.20;69.90;;;;;;4497124;31;20056;-71
2022/10/02 04:10:21;;;;;;;;;;;19.20;70.00;;;;;;4508224;31;20079;-70
2022/10/02 04:12:49;;;;;;;;;;;19.20;69.90;;;;;;4513780;31;20087;-70
2022/10/02 04:15:14;;;;;;;;;;;19.20;69.90;;;;;;4511487;31;20017;-70
2022/10/02 04:17:46;;;;;;;;;;;19.10;69.90;;;;;;4501954;31;20106;-70
2022/10/02 04:20:16;;;;;;;;;;;19.10;69.90;;;;;;4512915;31;20040;-70
2022/10/02 04:23:01;;;;;;;;;;;19.10;69.80;;;;;;4512759;31;20025;-70
2022/10/02 04:25:29;;;;;;;;;;;19.10;69.90;;;;;;4501854;31;20040;-71
2022/10/02 04:27:57;;;;;;;;;;;19.20;70.00;;;;;;4511070;31;20146;-70
2022/10/02 04:30:23;;;;;;;;;;;19.20;69.90;;;;;;4502885;31;20036;-70
2022/10/02 04:32:49;;;;;;;;;;;19.10;69.90;;;;;;4509897;31;20448;-70
2022/10/02 04:35:30;;;;;;;;;;;19.10;69.90;;;;;;4505030;31;20021;-70
2022/10/02 04:38:02;;;;;;;;;;;19.10;69.90;;;;;;4511572;31;20147;-70
2022/10/02 04:40:49;;;;;;;;;;;19.10;69.90;;;;;;4512738;31;20040;-70
2022/10/02 04:43:22;;;;;;;;;;;19.10;69.90;;;;;;4501298;31;20032;-70
2022/10/02 04:45:48;;;;;;;;;;;19.10;69.80;;;;;;4502488;31;20037;-70
2022/10/02 04:48:32;;;;;;;;;;;19.10;69.90;;;;;;4495595;31;20036;-71
2022/10/02 04:51:04;;;;;;;;;;;19.10;69.90;;;;;;4507948;31;20155;-70
2022/10/02 04:53:30;;;;;;;;;;;19.10;69.90;;;;;;4496449;31;20155;-70
2022/10/02 04:56:14;;;;;;;;;;;19.10;69.90;;;;;;4507423;31;20024;-70
2022/10/02 04:58:48;;;;;;;;;;;19.10;69.90;;;;;;4496740;31;20411;-70
2022/10/02 05:01:21;;;;;;;;;;;19.10;69.90;;;;;;4507744;31;20198;-70
2022/10/02 05:04:07;;;;;;;;;;;19.10;69.80;;;;;;4512178;31;20383;-70
2022/10/02 05:06:42;;;;;;;;;;;19.10;69.90;;;;;;4506175;31;20012;-70
2022/10/02 05:09:08;;;;;;;;;;;19.10;69.90;;;;;;4514755;31;20400;-70
2022/10/02 05:11:33;;;;;;;;;;;19.10;69.90;;;;;;4506505;31;20025;-70
2022/10/02 05:14:08;;;;;;;;;;;19.10;69.90;;;;;;4513084;31;20084;-70
2022/10/02 05:16:48;;;;;;;;;;;19.10;69.90;;;;;;4515567;31;20087;-70
2022/10/02 05:19:22;;;;;;;;;;;19.10;69.80;;;;;;4514499;31;20040;-71
2022/10/02 05:22:07;;;;;;;;;;;19.00;69.80;;;;;;4516071;31;20150;-70
2022/10/02 05:24:45;;;;;;;;;;;19.00;69.80;;;;;;4499397;31;20500;-70
2022/10/02 05:27:34;;;;;;;;;;;19.10;69.90;;;;;;4510102;31;20155;-70
2022/10/02 05:30:14;;;;;;;;;;;19.00;69.80;;;;;;4495562;31;20044;-71
2022/10/02 05:32:39;;;;;;;;;;;19.00;69.80;;;;;;4512016;31;20033;-70
2022/10/02 05:35:14;;;;;;;;;;;19.00;69.80;;;;;;4515313;31;20009;-70
2022/10/02 05:37:39;;;;;;;;;;;19.00;69.80;;;;;;4515070;31;20619;-71
2022/10/02 05:40:38;;;;;;;;;;;19.00;69.80;;;;;;4514405;31;20043;-70
2022/10/02 05:43:14;;;;;;;;;;;19.00;69.80;;;;;;4483883;31;20056;-70
2022/10/02 05:45:49;;;;;;;;;;;19.00;69.80;;;;;;4505521;31;20032;-70
2022/10/02 05:48:37;;;;;;;;;;;19.00;69.80;;;;;;4514253;31;20081;-71
2022/10/02 05:51:11;;;;;;;;;;;19.00;69.80;;;;;;4513585;31;20043;-71
2022/10/02 05:53:46;;;;;;;;;;;19.00;69.80;;;;;;4512024;31;20043;-71
2022/10/02 05:56:20;;;;;;;;;;;19.00;69.70;;;;;;4515120;31;20040;-71
2022/10/02 05:58:46;;;;;;;;;;;19.00;69.80;;;;;;4507634;31;20151;-70
2022/10/02 06:01:14;;;;;;;;;;;19.00;69.80;;;;;;4513423;31;20037;-71
2022/10/02 06:03:42;;;;;;;;;;;19.00;69.80;;;;;;4514795;31;20032;-70
2022/10/02 06:06:21;;;;;;;;;;;19.00;69.80;;;;;;4514280;31;20029;-70
2022/10/02 06:09:01;;;;;;;;;;;19.00;69.80;;;;;;4515092;31;20425;-70
2022/10/02 06:11:30;;;;;;;;;;;19.00;69.80;;;;;;4514477;31;20025;-70
2022/10/02 06:14:26;;;;;;;;;;;19.00;69.80;;;;;;4514513;31;20427;-70
2022/10/02 06:16:58;;;;;;;;;;;19.00;69.80;;;;;;4504585;31;20113;-70
2022/10/02 06:19:52;;;;;;;;;;;19.00;69.80;;;;;;4513553;31;20036;-70
2022/10/02 06:22:23;;;;;;;;;;;19.00;69.70;;;;;;4503903;31;20193;-70
2022/10/02 06:25:09;;;;;;;;;;;19.00;69.80;;;;;;4513353;31;20036;-71
2022/10/02 06:27:42;;;;;;;;;;;19.00;69.80;;;;;;4502397;31;20033;-70
2022/10/02 06:30:13;;;;;;;;;;;19.00;69.80;;;;;;4515147;31;20086;-71
2022/10/02 06:32:50;;;;;;;;;;;19.00;69.80;;;;;;4513791;31;20527;-70
2022/10/02 06:35:21;;;;;;;;;;;19.00;69.80;;;;;;4514310;31;20041;-70
2022/10/02 06:37:52;;;;;;;;;;;19.00;69.80;;;;;;4514123;31;20102;-70
2022/10/02 06:40:21;;;;;;;;;;;19.00;69.80;;;;;;4513849;31;20474;-70
2022/10/02 06:42:53;;;;;;;;;;;19.00;69.80;;;;;;4514788;31;20020;-70
2022/10/02 06:45:30;;;;;;;;;;;19.00;69.80;;;;;;4512459;31;20043;-70
2022/10/02 06:47:57;;;;;;;;;;;19.00;69.80;;;;;;4502752;31;20098;-70
2022/10/02 06:50:34;;;;;;;;;;;18.90;69.70;;;;;;4514122;31;20029;-70
2022/10/02 06:53:09;;;;;;;;;;;18.90;69.70;;;;;;4510978;31;20076;-70
2022/10/02 06:55:44;;;;;;;;;;;18.90;69.70;;;;;;4506113;31;20036;-70
2022/10/02 06:58:28;;;;;;;;;;;18.90;69.80;;;;;;4513312;31;20036;-70
2022/10/02 07:01:01;;;;;;;;;;;18.90;69.80;;;;;;4510625;31;20039;-70
2022/10/02 07:03:40;;;;;;;;;;;18.90;69.80;;;;;;4513966;31;20558;-70
2022/10/02 07:06:21;;;;;;;;;;;18.90;69.80;;;;;;4513575;31;20043;-71
2022/10/02 07:09:00;;;;;;;;;;;18.90;69.80;;;;;;4514211;31;20040;-72
2022/10/02 07:11:35;;;;;;;;;;;18.90;69.70;;;;;;4513754;31;20625;-71
2022/10/02 07:14:05;;;;;;;;;;;18.90;69.50;;;;;;4513519;31;20025;-69
2022/10/02 07:16:50;;;;;;;;;;;18.90;69.10;;;;;;4513761;31;20098;-71
2022/10/02 07:19:19;;;;;;;;;;;18.90;69.30;;;;;;4496820;31;20035;-71
2022/10/02 07:22:04;;;;;;;;;;;18.90;69.50;;;;;;4497197;31;20091;-71
2022/10/02 07:24:50;;;;;;;;;;;18.90;69.80;;;;;;4513075;31;20044;-71
2022/10/02 07:27:26;;;;;;;;;;;18.80;69.70;;;;;;4479464;31;20409;-70
2022/10/02 07:29:57;;;;;;;;;;;18.90;69.80;;;;;;4504391;31;20035;-70
2022/10/02 07:32:48;;;;;;;;;;;18.90;69.90;;;;;;4511322;31;20035;-70
2022/10/02 07:35:14;;;;;;;;;;;18.90;70.00;;;;;;4505420;31;20040;-70
2022/10/02 07:37:43;;;;;;;;;;;18.90;69.90;;;;;;4513285;31;20109;-71
2022/10/02 07:40:14;;;;;;;;;;;18.90;70.00;;;;;;4513287;31;20029;-70
2022/10/02 07:42:43;;;;;;;;;;;18.90;70.20;;;;;;4513914;31;20025;-70
2022/10/02 07:45:28;;;;;;;;;;;18.90;70.20;;;;;;4513069;31;20066;-71
2022/10/02 07:47:54;;;;;;;;;;;19.00;70.00;;;;;;4500814;31;20036;-71
2022/10/02 07:50:34;;;;;;;;;;;19.10;69.60;;;;;;4513134;31;20032;-71
2022/10/02 07:53:18;;;;;;;;;;;19.20;69.50;;;;;;4510176;31;20140;-70
2022/10/02 07:55:49;;;;;;;;;;;19.30;69.30;;;;;;4506566;31;20021;-71
2022/10/02 07:58:35;;;;;;;;;;;19.40;69.00;;;;;;4508941;31;20083;-68
2022/10/02 08:01:04;;;;;;;;;;;19.50;68.80;;;;;;4506488;31;20072;-70
2022/10/02 08:03:43;;;;;;;;;;;19.60;68.50;;;;;;4511583;31;20040;-71
2022/10/02 08:06:08;;;;;;;;;;;19.80;68.30;;;;;;4503679;31;20080;-70
2022/10/02 08:08:40;;;;;;;;;;;19.90;68.00;;;;;;4513733;31;20017;-71
2022/10/02 08:11:05;;;;;;;;;;;20.10;67.70;;;;;;4512877;31;20590;-70
2022/10/02 08:13:42;;;;;;;;;;;20.20;67.50;;;;;;4513349;31;20017;-71
2022/10/02 08:16:08;;;;;;;;;;;20.30;67.30;;;;;;4498140;31;20083;-71
2022/10/02 08:18:36;;;;;;;;;;;20.40;67.00;;;;;;4507823;31;20040;-70
2022/10/02 08:21:03;;;;;;;;;;;20.50;66.80;;;;;;4513683;31;20536;-70
2022/10/02 08:23:36;;;;;;;;;;;20.50;66.70;;;;;;4512608;31;20032;-70
2022/10/02 08:26:11;;;;;;;;;;;20.60;66.50;;;;;;4512451;31;20170;-72
2022/10/02 08:28:52;;;;;;;;;;;20.70;66.40;;;;;;4503536;31;20039;-71
2022/10/02 08:31:18;;;;;;;;;;;20.70;66.30;;;;;;4512019;31;20039;-70
2022/10/02 08:33:44;;;;;;;;;;;20.80;66.30;;;;;;4511623;31;20021;-70
2022/10/02 08:36:15;;;;;;;;;;;20.80;66.10;;;;;;4511994;31;20285;-71
2022/10/02 08:38:45;;;;;;;;;;;20.90;66.10;;;;;;4514714;31;20102;-71
2022/10/02 08:41:23;;;;;;;;;;;20.90;66.00;;;;;;4515016;31;20806;-71
2022/10/02 08:43:49;;;;;;;;;;;21.00;65.90;;;;;;4515563;31;20080;-71
2022/10/02 08:46:15;;;;;;;;;;;21.00;65.80;;;;;;4515229;31;20178;-71
2022/10/02 08:48:57;;;;;;;;;;;21.00;65.70;;;;;;4514822;31;20020;-71
2022/10/02 08:51:29;;;;;;;;;;;21.10;65.80;;;;;;4513525;31;20064;-71
2022/10/02 08:54:14;;;;;;;;;;;21.10;65.70;;;;;;4514415;31;20040;-71
2022/10/02 08:56:58;;;;;;;;;;;21.10;65.60;;;;;;4513995;31;20091;-70
2022/10/02 08:59:40;;;;;;;;;;;21.20;65.60;;;;;;4515088;31;20036;-72
2022/10/02 09:02:09;;;;;;;;;;;21.20;65.60;;;;;;4514832;31;20037;-71
2022/10/02 09:04:48;;;;;;;;;;;21.20;65.50;;;;;;4516070;31;20020;-71
2022/10/02 09:07:23;;;;;;;;;;;21.20;65.50;;;;;;4515327;31;20025;-71
2022/10/02 09:09:52;;;;;;;;;;;21.20;65.50;;;;;;4514317;31;20029;-71
2022/10/02 09:12:24;;;;;;;;;;;21.20;65.40;;;;;;4512157;31;20119;-72
2022/10/02 09:14:51;;;;;;;;;;;21.20;66.00;;;;;;4506888;31;20143;-71
2022/10/02 09:17:19;;;;;;;;;;;21.20;65.90;;;;;;4515724;31;20036;-71
2022/10/02 09:19:59;;;;;;;;;;;21.20;66.00;;;;;;4514758;31;20040;-71
2022/10/02 09:22:46;;;;;;;;;;;21.10;66.20;;;;;;4512269;31;20035;-71
2022/10/02 09:25:12;;;;;;;;;;;21.10;66.50;;;;;;4508642;31;20238;-70
2022/10/02 09:27:40;;;;;;;;;;;21.00;66.60;;;;;;4514553;31;20021;-70
2022/10/02 09:30:26;;;;;;;;;;;21.00;67.00;;;;;;4515762;31;20462;-70
2022/10/02 09:33:00;;;;;;;;;;;21.00;67.20;;;;;;4499166;31;20032;-70
2022/10/02 09:35:45;;;;;;;;;;;20.90;67.50;;;;;;4508352;31;20389;-70
2022/10/02 09:38:28;;;;;;;;;;;20.80;67.60;;;;;;4499803;31;20044;-69
2022/10/02 09:40:54;;;;;;;;;;;20.80;67.80;;;;;;4507177;31;20112;-70
2022/10/02 09:43:20;;;;;;;;;;;20.70;68.00;;;;;;4515246;31;20499;-69
2022/10/02 09:45:55;;;;;;;;;;;20.70;68.40;;;;;;4514549;31;20029;-69
2022/10/02 09:48:44;;;;;;;;;;;20.60;68.30;;;;;;4514179;31;20040;-70
2022/10/02 09:51:28;;;;;;;;;;;20.60;68.60;;;;;;4514798;31;20020;-69
2022/10/02 09:53:55;;;;;;;;;;;20.60;69.20;;;;;;4514235;31;20025;-70
2022/10/02 09:56:23;;;;;;;;;;;20.60;68.80;;;;;;4503477;31;20017;-70
2022/10/02 09:59:08;;;;;;;;;;;20.60;69.00;;;;;;4514313;31;20029;-70
2022/10/02 10:01:49;;;;;;;;;;;20.50;68.70;;;;;;4514155;31;20039;-70
2022/10/02 10:04:21;;;;;;;;;;;20.50;69.20;;;;;;4499260;31;20250;-69
2022/10/02 10:07:05;;;;;;;;;;;20.50;69.50;;;;;;4509107;31;20150;-70
2022/10/02 10:09:49;;;;;;;;;;;20.50;69.50;;;;;;4498435;31;20025;-70
2022/10/02 10:12:34;;;;;;;;;;;20.50;69.50;;;;;;4512149;31;20158;-70
2022/10/02 10:15:02;;;;;;;;;;;20.40;69.40;;;;;;4513861;31;20366;-70
2022/10/02 10:17:37;;;;;;;;;;;20.40;69.50;;;;;;4514659;31;20024;-69
2022/10/02 10:20:13;;;;;;;;;;;20.40;69.50;;;;;;4513814;31;20478;-70
2022/10/02 10:22:48;;;;;;;;;;;20.40;69.40;;;;;;4513921;31;20024;-70
2022/10/02 10:25:14;;;;;;;;;;;20.40;69.50;;;;;;4514644;31;20155;-70
2022/10/02 10:28:01;;;;;;;;;;;20.30;69.50;;;;;;4513473;31;20042;-70
2022/10/02 10:30:36;;;;;;;;;;;20.30;69.50;;;;;;4514454;31;20559;-70
2022/10/02 10:33:05;;;;;;;;;;;20.20;69.60;;;;;;4512835;31;20029;-70
2022/10/02 10:35:51;;;;;;;;;;;20.20;69.50;;;;;;4504135;31;20089;-70
2022/10/02 10:38:32;;;;;;;;;;;20.20;69.60;;;;;;4498625;31;20148;-70
2022/10/02 10:41:16;;;;;;;;;;;20.20;69.60;;;;;;4497303;31;20055;-70
2022/10/02 10:43:54;;;;;;;;;;;20.20;69.70;;;;;;4513417;31;20017;-70
2022/10/02 10:46:23;;;;;;;;;;;20.20;69.60;;;;;;4513693;31;20086;-70
2022/10/02 10:48:59;;;;;;;;;;;20.20;69.60;;;;;;4512560;31;20032;-71
2022/10/02 10:51:33;;;;;;;;;;;20.20;69.50;;;;;;4512427;31;20044;-70
2022/10/02 10:54:04;;;;;;;;;;;20.20;69.50;;;;;;4513360;31;20047;-69
2022/10/02 10:56:49;;;;;;;;;;;20.20;69.50;;;;;;4513592;31;20066;-70
2022/10/02 10:59:42;;;;;;;;;;;20.20;69.40;;;;;;4506719;31;20091;-69
2022/10/02 11:02:14;;;;;;;;;;;20.20;69.40;;;;;;4509838;31;20139;-69
2022/10/02 11:05:06;;;;;;;;;;;20.20;69.40;;;;;;4510592;31;20037;-70
2022/10/02 11:07:33;;;;;;;;;;;20.20;69.30;;;;;;4487264;31;20020;-70
2022/10/02 11:10:06;;;;;;;;;;;20.20;69.40;;;;;;4510970;31;20063;-70
2022/10/02 11:12:40;;;;;;;;;;;20.20;69.30;;;;;;4513615;31;20037;-70
2022/10/02 11:15:20;;;;;;;;;;;20.20;69.30;;;;;;4512610;31;20047;-70
2022/10/02 11:17:56;;;;;;;;;;;20.20;69.20;;;;;;4504996;31;20099;-70
2022/10/02 11:20:32;;;;;;;;;;;20.20;69.20;;;;;;4512955;31;20036;-70
2022/10/02 11:23:14;;;;;;;;;;;20.20;69.20;;;;;;4511533;31;20494;-69
2022/10/02 11:25:49;;;;;;;;;;;20.20;69.10;;;;;;4512532;31;20045;-70
2022/10/02 11:28:21;;;;;;;;;;;20.10;69.10;;;;;;4512719;31;20197;-70
2022/10/02 11:31:09;;;;;;;;;;;20.10;69.10;;;;;;4511815;31;20460;-70
2022/10/02 11:33:44;;;;;;;;;;;20.20;69.10;;;;;;4512706;31;20079;-70
2022/10/02 11:36:22;;;;;;;;;;;20.20;69.10;;;;;;4512206;31;20029;-70
2022/10/02 11:38:51;;;;;;;;;;;20.10;69.10;;;;;;4513351;31;20499;-70
2022/10/02 11:41:26;;;;;;;;;;;20.10;69.00;;;;;;4512697;31;20106;-70
2022/10/02 11:43:57;;;;;;;;;;;20.10;69.00;;;;;;4512745;31;20055;-70
2022/10/02 11:46:22;;;;;;;;;;;20.10;69.00;;;;;;4512022;31;20039;-70
2022/10/02 11:49:01;;;;;;;;;;;20.10;68.90;;;;;;4512325;31;20029;-70
2022/10/02 11:51:26;;;;;;;;;;;20.10;68.80;;;;;;4512263;31;20040;-70
2022/10/02 11:53:58;;;;;;;;;;;20.10;68.80;;;;;;4508286;31;20437;-70
2022/10/02 11:56:25;;;;;;;;;;;20.10;68.80;;;;;;4512986;31;20076;-70
2022/10/02 11:58:50;;;;;;;;;;;20.10;68.80;;;;;;4513051;31;20162;-70
2022/10/02 12:01:52;;;;;;;;;;;20.10;68.80;;;;;;4512773;31;20101;-71
2022/10/02 12:04:39;;;;;;;;;;;20.10;68.80;;;;;;4464552;32;20057;-70
2022/10/02 12:07:18;;;;;;;;;;;20.10;68.70;;;;;;4498756;31;20547;-70
2022/10/02 12:09:49;;;;;;;;;;;20.10;68.70;;;;;;4512863;31;20036;-69
2022/10/02 12:12:35;;;;;;;;;;;20.10;68.70;;;;;;4513421;31;21093;-70
2022/10/02 12:15:00;;;;;;;;;;;20.10;68.50;;;;;;4515823;31;20021;-70
2022/10/02 12:17:38;;;;;;;;;;;20.10;68.60;;;;;;4515565;31;20035;-72
2022/10/02 12:29:24;;;;;;;;;;;20.10;68.50;;;;;;4515670;31;20020;-70
2022/10/02 12:31:57;;;;;;;;;;;20.10;68.50;;;;;;4458024;31;20035;-70
2022/10/02 12:34:23;;;;;;;;;;;20.20;68.50;;;;;;4515964;31;20186;-70
2022/10/02 12:36:57;;;;;;;;;;;20.20;69.40;;;;;;4513578;31;20061;-71
2022/10/02 12:39:32;;;;;;;;;;;20.20;68.40;;;;;;4515085;31;20043;-71
2022/10/02 12:42:11;;;;;;;;;;;20.20;68.50;;;;;;4515180;31;20400;-71
2022/10/02 12:44:43;;;;;;;;;;;20.20;68.40;;;;;;4512071;31;20036;-70
2022/10/02 12:47:15;;;;;;;;;;;20.20;68.50;;;;;;4514286;31;20057;-71
2022/10/02 12:49:49;;;;;;;;;;;20.20;68.60;;;;;;4514174;31;20069;-71
2022/10/02 12:52:15;;;;;;;;;;;20.20;68.70;;;;;;4513996;31;20171;-72
2022/10/02 12:54:53;;;;;;;;;;;20.20;68.70;;;;;;4512180;31;20047;-70
2022/10/02 13:00:14;;;;;;;;;;;20.20;69.60;;;;;;4514647;31;20044;-71
2022/10/02 13:03:00;;;;;;;;;;;20.20;68.80;;;;;;4514244;31;20029;-70
2022/10/02 13:05:30;;;;;;;;;;;20.20;68.80;;;;;;4513796;31;20146;-72
2022/10/02 13:08:04;;;;;;;;;;;20.20;68.80;;;;;;4514096;31;20037;-71
2022/10/02 13:10:35;;;;;;;;;;;20.20;68.80;;;;;;4513800;31;20036;-71
2022/10/02 13:13:19;;;;;;;;;;;20.20;68.90;;;;;;4514697;31;20029;-71
2022/10/02 13:15:58;;;;;;;;;;;20.20;68.90;;;;;;4512369;31;20036;-71
2022/10/02 13:18:42;;;;;;;;;;;20.20;68.80;;;;;;4496046;31;28409;-70
2022/10/02 13:21:24;;;;;;;;;;;20.20;69.70;;;;;;4513175;31;20503;-71
2022/10/02 13:23:50;;;;;;;;;;;20.20;68.90;;;;;;4511907;31;20029;-71
2022/10/02 13:26:21;;;;;;;;;;;20.20;68.90;;;;;;4512424;31;20334;-71
2022/10/02 13:28:53;;;;;;;;;;;20.20;68.90;;;;;;4525500;31;20040;-71
2022/10/02 13:31:18;;;;;;;;;;;20.10;68.80;;;;;;4514293;31;20171;-72
2022/10/02 13:33:44;;;;;;;;;;;20.10;68.90;;;;;;4515444;31;20025;-71
2022/10/02 13:36:27;;;;;;;;;;;20.10;68.90;;;;;;4499256;31;20017;-72
2022/10/02 13:38:52;;;;;;;;;;;20.10;69.00;;;;;;4500272;31;20289;-72
2022/10/02 13:41:18;;;;;;;;;;;20.10;69.00;;;;;;4505778;31;20486;-72
2022/10/02 13:43:50;;;;;;;;;;;20.10;68.90;;;;;;4514586;31;20025;-71
2022/10/02 13:46:33;;;;;;;;;;;20.10;68.90;;;;;;4514677;31;20060;-72
2022/10/02 13:49:01;;;;;;;;;;;20.10;68.80;;;;;;4513867;31;20381;-72
2022/10/02 13:51:37;;;;;;;;;;;20.20;68.80;;;;;;4515070;31;20032;-71
2022/10/02 13:54:21;;;;;;;;;;;20.10;68.70;;;;;;4514601;31;20032;-72
2022/10/02 13:56:49;;;;;;;;;;;20.10;68.80;;;;;;4513800;31;20032;-72
2022/10/02 13:59:28;;;;;;;;;;;20.10;68.80;;;;;;4514647;31;20025;-71
2022/10/02 14:02:06;;;;;;;;;;;20.10;68.80;;;;;;4509304;31;20021;-72
2022/10/02 14:04:41;;;;;;;;;;;20.10;68.70;;;;;;4514825;31;20213;-72
2022/10/02 14:07:06;;;;;;;;;;;20.10;68.70;;;;;;4514460;31;20021;-71
2022/10/02 14:09:33;;;;;;;;;;;20.10;68.60;;;;;;4514110;31;20036;-72
2022/10/02 14:12:07;;;;;;;;;;;20.10;68.50;;;;;;4514528;31;20032;-71
2022/10/02 14:14:45;;;;;;;;;;;20.10;68.50;;;;;;4513890;31;20032;-71
2022/10/02 14:17:25;;;;;;;;;;;20.10;68.40;;;;;;4514751;31;20044;-73
2022/10/02 14:20:09;;;;;;;;;;;20.10;68.30;;;;;;4497307;31;29426;-73
2022/10/02 14:23:01;;;;;;;;;;;20.10;68.30;;;;;;4513972;31;20016;-73
2022/10/02 14:25:45;;;;;;;;;;;20.10;68.10;;;;;;4515434;31;20072;-72
2022/10/02 14:28:24;;;;;;;;;;;20.10;68.00;;;;;;4505939;31;20028;-74
2022/10/02 14:30:59;;;;;;;;;;;20.10;68.00;;;;;;4504965;31;20548;-76
2022/10/02 14:33:25;;;;;;;;;;;20.10;67.90;;;;;;4513210;31;20036;-72
2022/10/02 14:35:54;;;;;;;;;;;20.10;67.80;;;;;;4511141;31;20033;-72
2022/10/02 14:38:30;;;;;;;;;;;20.10;67.90;;;;;;4508706;31;20025;-73
2022/10/02 14:40:57;;;;;;;;;;;20.10;67.70;;;;;;4509189;31;20043;-71
2022/10/02 14:43:32;;;;;;;;;;;20.10;67.70;;;;;;4514230;31;20028;-71
2022/10/02 14:46:16;;;;;;;;;;;20.10;67.70;;;;;;4513801;31;20035;-70
2022/10/02 14:48:51;;;;;;;;;;;20.10;67.60;;;;;;4511420;31;20174;-71
2022/10/02 14:51:29;;;;;;;;;;;20.10;67.70;;;;;;4511588;31;20236;-71
2022/10/02 14:54:13;;;;;;;;;;;20.10;67.50;;;;;;4512799;31;20117;-69
2022/10/02 14:56:42;;;;;;;;;;;20.10;67.60;;;;;;4510039;31;20523;-69
2022/10/02 14:59:08;;;;;;;;;;;20.10;67.60;;;;;;4513383;31;20039;-71
2022/10/02 15:02:02;;;;;;;;;;;20.10;67.60;;;;;;4512028;31;20036;-71
2022/10/02 15:04:46;;;;;;;;;;;20.10;67.60;;;;;;4492921;31;20040;-75
2022/10/02 15:07:13;;;;;;;;;;;20.10;67.50;;;;;;4512156;31;20036;-71
2022/10/02 15:09:47;;;;;;;;;;;20.10;67.60;;;;;;4510996;31;20048;-70